North Cascades National Park, WA

8:27 AM PDT on October 22, 2014 (GMT -0700)
Diablo Helistop | Change Station
CLOSE
Current Station
Personal Weather Station
Location: Diablo, WA
Elevation: 896 ft
Nearby Weather Stations

Elev 896 ft 48.71 °N, 121.14 °W | Updated 6 seconds ago

Rain
Rain
49.5 °F
Feels Like 50 °F
N
0.0
Wind Variable Wind from NNE
Gusts 1.0 mph

Today
High -- | Low -- °F
--% Chance of Precip.
Yesterday
High -- | Low -- °F
Precip. -- in
7:36 AM 6:02 PM
Waning Crescent, 2% visible
Pressure 29.68 in
Visibility 10.0 miles
Clouds Mostly Cloudy 2200 ft
Overcast 12000 ft
Windchill 50 °F
Dew Point 49 °F
Humidity 97%
Rainfall 0.00 in
Snow Depth Not available.
UV 0.0 out of 12
Pollen .40 out of 12
PM2.5 Good
Flu Activity Sporadic
METAR KAWO 221515Z AUTO 14015G20KT 10SM BKN022 OVC120 12/10 A2968 RMK AO1

More Conditions Fewer Conditions

Pressure 29.68 in
Visibility 10.0 miles
Clouds Mostly Cloudy 2200 ft
Overcast 12000 ft
Windchill 50 °F
Dew Point 49 °F
Humidity 97%
Rainfall 0.00 in
Snow Depth Not available.
UV 0.0 out of 12
Pollen .40 out of 12
PM2.5 Good
Flu Activity Sporadic
METAR KAWO 221515Z AUTO 14015G20KT 10SM BKN022 OVC120 12/10 A2968 RMK AO1

More Conditions Fewer Conditions

10-Day Weather Forecast

Almanac

Astronomy

Oct. 22, 2014 Rise Set
Actual Time 7:36 AM PDT 6:02 PM PDT
Civil Twilight 7:04 AM PDT 6:35 PM PDT
Nautical Twilight 6:27 AM PDT 7:11 PM PDT
Astronomical Twilight 5:51 AM PDT 7:47 PM PDT
Moon 6:17 AM PDT 5:36 PM PDT
Length of Visible Light 11h 30m
Length of Day
10h 26m
Tomorrow will be 3m 22s shorter.
Waning Crescent, 2% of the Moon is Illuminated
Today
Waning Crescent
Oct 23
New
Oct 30
First Quarter
Nov 6
Full
Nov 14
Last Quarter

Today's Extremes

State Highs State Lows

Community

WunderPhotos

Upload Photos

1,763,949 photos uploaded!

Nearby

Air Quality

  Air Quality AQ Index Pollutant
Yesterday Good
PM2.5
Current Good
PM2.5
Wednesday Good
PM2.5
Thursday Good
PM2.5
Friday Good
PM2.5
Saturday Good
PM2.5

Snow Depth

Station Depth Elevation
Park Creek Ridge 0 in 4600 ft
Beaver Pass 0 in 3620 ft
Wells Creek 0 in 4200 ft
Mf Nooksack 2 in 4980 ft
Hozomeen Camp 0 in 1650 ft

Earthquake Activity

City Distance Mag. Time & Date
No recent earthquake activity has been reported nearby.
Minimum magnitude displayed is 2.5.

Coastal Water Temperatures

Place Temperature
No Stations Reporting

Nearby Weather Stations